Creston, Canada
Current Conditions -  °F | °C
As of 10:15 AM on Thursday 27 Nov 2014 (Local Time) from K65S Reporting Station
Overcast Overcast  
Wind Chill: 48°   Ceiling: 3900
Heat Index: 48°   Visibility: 10mi
Dew Point: 41°   Wind: 3mph
Humidity: 76%   Direction: 150°SSE
Pressure: 29.84"   Gusts: NA
Location:  49.1°N, 116.51°W
Report Text: K65S 271815Z AUTO 15003KT 10SM OVC039 09/05 A2984 RMK AO2
Loading
Personal Weather Stations






























Interactive Weather Map New forecast layout! Learn more

10-Day Weather Forecast

Advertisements
Track Severe Weather on mobile